Terminal Aerodrome Forecast
Issued by NWS

Home | Current Version | Previous Version | Graphics & Text | Print | Product List | Glossary On
Versions: 1 2 3 4 5 6 7 8 9 10 11 12 13 14 15 16 17 18 19 20 21 22 23 24
000
FTUS43 KDLH 010500
TAFHYR
TAF
KHYR 010535Z 0106/0206 VRB02KT 6SM BR SCT003
      TEMPO 0106/0110 1/2SM FG BKN003
     FM011000 VRB02KT 3SM BR SCT003
      TEMPO 0110/0112 1/4SM FG OVC002
     FM011400 01005KT P6SM SCT050
     FM011900 01007KT P6SM VCSH BKN050
     FM020000 VRB05KT P6SM SCT050=

USA.gov is the U.S. government's official web portal to all federal, state and local government web resources and services.